NCAR-RAP Real-Time Weather Data

Output produced by METARs form (31 August 2015  15:15 UTC)
found at http://weather.rap.ucar.edu/surface/
 
Conditions at: KLOU observed 31 August 2015  14:53 UTC
Temperature: 26.7°C (80°F)
Dewpoint: 18.9°C (66°F) [RH = 62%]
Pressure (altimeter): 30.16 inches Hg (1021.4 mb)
[Sea-level pressure: 1020.7 mb]
Winds: from the W (280 degrees) at 7 MPH (6 knots; 3.1 m/s)
Visibility: 10 or more miles (16+ km)
Ceiling: at least 12,000 feet AGL
Clouds: sky clear below 12,000 feet AGL
Present Weather: no significant weather observed at this time
KLOU 311453Z 28006KT 10SM CLR 27/19 A3016 RMK AO2 SLP207 T02670189 51009